Time;durP1;ratioP1;P1;durP2;ratioP2;P2;SDS_P1;SDS_P2;PMS_P1;PMS_P2;Temp;Humidity;BMP_temperature;BMP_pressure;BME280_temperature;BME280_humidity;BME280_pressure;Samples;Min_cycle;Max_cycle;Signal;HPM_P1;HPM_P2
2021/12/23 00:00:54;;;;;;;18.90;12.30;;;0.00;99.90;;;;;;5034544;28;20616;-65
2021/12/23 00:03:19;;;;;;;19.30;10.90;;;0.00;99.90;;;;;;5034468;28;20204;-65
2021/12/23 00:05:45;;;;;;;21.37;12.97;;;0.00;99.90;;;;;;5034696;28;20219;-65
2021/12/23 00:08:10;;;;;;;18.07;10.97;;;0.00;99.90;;;;;;5034369;28;20169;-66
2021/12/23 00:10:36;;;;;;;18.77;11.40;;;0.10;99.90;;;;;;5034314;28;20243;-67
2021/12/23 00:13:02;;;;;;;22.57;11.30;;;0.10;99.90;;;;;;5033940;28;20525;-66
2021/12/23 00:16:17;;;;;;;17.87;10.93;;;0.10;99.90;;;;;;5033965;28;20199;-66
2021/12/23 00:18:30;;;;;;;19.90;11.70;;;0.00;99.90;;;;;;5036122;28;20189;-64
2021/12/23 00:23:43;;;;;;;20.30;10.87;;;0.00;99.90;;;;;;5033814;28;20170;-66
2021/12/23 00:26:08;;;;;;;22.70;12.13;;;0.10;99.90;;;;;;5049398;28;20262;-66
2021/12/23 00:28:34;;;;;;;22.77;12.20;;;0.00;99.90;;;;;;5033770;28;20627;-65
2021/12/23 00:31:01;;;;;;;21.80;11.90;;;0.00;99.90;;;;;;5033695;28;20188;-66
2021/12/23 00:33:28;;;;;;;18.63;11.23;;;0.00;99.90;;;;;;5033927;28;20259;-67
2021/12/23 00:35:55;;;;;;;17.90;10.87;;;0.00;99.90;;;;;;5033434;28;20293;-66
2021/12/23 00:38:29;;;;;;;21.03;12.80;;;-0.10;99.90;;;;;;5033850;28;20165;-67
2021/12/23 00:40:57;;;;;;;24.27;12.07;;;0.00;99.90;;;;;;5037448;28;20188;-67
2021/12/23 00:43:24;;;;;;;21.50;12.27;;;0.00;99.90;;;;;;5049587;28;20170;-66
2021/12/23 00:45:50;;;;;;;19.73;11.33;;;0.00;99.90;;;;;;5045557;28;20165;-68
2021/12/23 00:48:17;;;;;;;21.17;11.73;;;-0.10;99.90;;;;;;5048792;28;20161;-70
2021/12/23 00:50:43;;;;;;;23.10;11.97;;;-0.10;99.90;;;;;;5047440;28;20174;-66
2021/12/23 00:53:11;;;;;;;20.90;12.90;;;-0.20;99.90;;;;;;5051000;28;20636;-66
2021/12/23 00:55:37;;;;;;;22.83;12.70;;;-0.10;99.90;;;;;;5033660;28;20153;-66
2021/12/23 00:58:04;;;;;;;23.53;12.30;;;-0.10;99.90;;;;;;5033989;28;20173;-66
2021/12/23 01:00:30;;;;;;;22.57;12.23;;;-0.10;99.90;;;;;;5033552;28;20190;-65
2021/12/23 01:02:59;;;;;;;21.50;11.23;;;-0.20;99.90;;;;;;5033697;28;20213;-65
2021/12/23 01:05:25;;;;;;;21.70;11.90;;;-0.30;99.90;;;;;;5033990;28;20156;-66
2021/12/23 01:07:51;;;;;;;23.40;12.53;;;-0.30;99.90;;;;;;5038493;28;20170;-66
2021/12/23 01:10:17;;;;;;;19.43;11.50;;;-0.30;99.90;;;;;;5033425;28;20187;-66
2021/12/23 01:12:50;;;;;;;19.47;11.23;;;-0.20;99.90;;;;;;5033435;28;20166;-65
2021/12/23 01:15:57;;;;;;;22.13;11.63;;;-0.20;99.90;;;;;;5033188;28;20171;-65
2021/12/23 01:18:13;;;;;;;24.67;12.37;;;-0.20;99.90;;;;;;5032992;28;20190;-67
2021/12/23 01:21:02;;;;;;;22.30;13.10;;;-0.20;99.90;;;;;;5033527;28;20180;-66
2021/12/23 01:23:29;;;;;;;22.43;11.90;;;-0.30;99.90;;;;;;5033256;28;20179;-68
2021/12/23 01:25:54;;;;;;;21.87;11.50;;;-0.30;99.90;;;;;;5049033;28;20560;-66
2021/12/23 01:28:20;;;;;;;22.43;12.70;;;-0.30;99.90;;;;;;5033529;28;20247;-66
2021/12/23 01:30:46;;;;;;;24.83;12.10;;;-0.20;99.90;;;;;;5032866;28;20218;-65
2021/12/23 01:33:13;;;;;;;21.37;11.87;;;-0.10;99.90;;;;;;5033497;28;20339;-67
2021/12/23 01:35:39;;;;;;;25.87;12.27;;;-0.20;99.90;;;;;;5033672;28;20231;-66
2021/12/23 01:38:05;;;;;;;21.13;11.87;;;-0.20;99.90;;;;;;5036737;28;20467;-66
2021/12/23 01:40:32;;;;;;;21.60;11.67;;;-0.30;99.90;;;;;;5037393;28;20496;-66
2021/12/23 01:42:58;;;;;;;22.57;11.43;;;-0.30;99.90;;;;;;5037011;28;20164;-66
2021/12/23 01:45:29;;;;;;;22.10;12.67;;;-0.30;99.90;;;;;;5036274;28;20511;-66
2021/12/23 01:47:56;;;;;;;23.27;12.70;;;-0.30;99.90;;;;;;5037186;28;20187;-66
2021/12/23 01:50:27;;;;;;;22.20;12.53;;;-0.30;99.90;;;;;;5036401;28;20674;-65
2021/12/23 01:52:57;;;;;;;22.47;11.77;;;-0.30;99.90;;;;;;5036967;28;20167;-65
2021/12/23 01:55:23;;;;;;;21.93;12.57;;;-0.30;99.90;;;;;;5036586;28;20171;-65
2021/12/23 01:57:50;;;;;;;25.97;11.70;;;-0.30;99.90;;;;;;5036864;28;20193;-65
2021/12/23 02:00:18;;;;;;;21.50;12.17;;;-0.20;99.90;;;;;;5036878;28;20169;-66
2021/12/23 02:02:44;;;;;;;23.27;12.97;;;-0.30;99.90;;;;;;5036406;28;20169;-66
2021/12/23 02:05:10;;;;;;;22.63;11.90;;;-0.20;99.90;;;;;;5036988;28;20244;-65
2021/12/23 02:07:37;;;;;;;19.73;11.40;;;-0.10;99.90;;;;;;5036171;28;20208;-65
2021/12/23 02:10:05;;;;;;;19.77;11.93;;;-0.10;99.90;;;;;;5047199;28;20180;-67
2021/12/23 02:12:31;;;;;;;20.27;11.53;;;-0.10;99.90;;;;;;5046989;28;20169;-67
2021/12/23 02:14:56;;;;;;;18.47;11.67;;;-0.20;99.90;;;;;;5046607;28;20210;-67
2021/12/23 02:17:22;;;;;;;21.77;12.00;;;-0.20;99.90;;;;;;5045723;28;20203;-67
2021/12/23 02:19:53;;;;;;;20.20;11.67;;;-0.20;99.90;;;;;;5036894;28;20180;-66
2021/12/23 02:22:18;;;;;;;21.67;11.87;;;-0.30;99.90;;;;;;5036729;28;20503;-66
2021/12/23 02:24:44;;;;;;;21.43;11.20;;;-0.10;99.90;;;;;;5035332;28;20266;-65
2021/12/23 02:27:11;;;;;;;23.73;11.27;;;-0.20;99.90;;;;;;5036271;28;20219;-65
2021/12/23 02:29:37;;;;;;;19.63;11.00;;;-0.10;99.90;;;;;;5036055;28;20158;-66
2021/12/23 02:32:03;;;;;;;21.90;11.63;;;-0.20;99.90;;;;;;5040667;28;20207;-67
2021/12/23 02:34:28;;;;;;;26.43;12.67;;;-0.20;99.90;;;;;;5042155;28;20233;-66
2021/12/23 02:36:58;;;;;;;19.77;11.50;;;-0.20;99.90;;;;;;5036463;28;20193;-65
2021/12/23 02:39:26;;;;;;;21.13;11.57;;;-0.10;99.90;;;;;;5035879;28;20169;-66
2021/12/23 02:41:52;;;;;;;21.83;11.07;;;-0.10;99.90;;;;;;5036073;28;20605;-66
2021/12/23 02:44:18;;;;;;;20.27;11.03;;;-0.10;99.90;;;;;;5035844;28;20169;-65
2021/12/23 02:46:44;;;;;;;21.80;11.80;;;-0.10;99.90;;;;;;5035872;28;20165;-65
2021/12/23 02:49:10;;;;;;;18.83;11.13;;;-0.10;99.90;;;;;;5034617;28;20163;-66
2021/12/23 02:51:36;;;;;;;21.37;11.30;;;-0.10;99.90;;;;;;5051793;28;20735;-65
2021/12/23 02:54:02;;;;;;;18.60;11.50;;;-0.10;99.90;;;;;;5035944;28;20198;-66
2021/12/23 02:56:28;;;;;;;18.53;11.17;;;-0.10;99.90;;;;;;5051860;28;20578;-65
2021/12/23 02:58:54;;;;;;;21.07;11.13;;;0.00;99.90;;;;;;5035949;28;20165;-66
2021/12/23 03:01:22;;;;;;;19.80;10.50;;;-0.10;99.90;;;;;;5035921;28;20176;-66
2021/12/23 03:03:48;;;;;;;17.93;10.90;;;-0.10;99.90;;;;;;5036141;28;20167;-67
2021/12/23 03:06:13;;;;;;;19.67;10.93;;;0.00;99.90;;;;;;5035954;28;20247;-65
2021/12/23 03:08:47;;;;;;;20.00;11.43;;;0.00;99.90;;;;;;5036423;28;20244;-66
2021/12/23 03:11:17;;;;;;;21.87;10.43;;;0.10;99.90;;;;;;5036245;28;20164;-66
2021/12/23 03:13:43;;;;;;;18.63;10.93;;;-0.10;99.90;;;;;;5036694;28;20163;-64
2021/12/23 03:16:09;;;;;;;20.67;10.80;;;0.00;99.90;;;;;;5051098;28;20583;-66
2021/12/23 03:18:35;;;;;;;20.23;10.97;;;0.00;99.90;;;;;;5039147;28;20173;-65
2021/12/23 03:21:02;;;;;;;20.97;10.87;;;0.00;99.90;;;;;;5043110;28;20178;-66
2021/12/23 03:23:28;;;;;;;19.90;10.77;;;0.00;99.90;;;;;;5042638;28;20165;-66
2021/12/23 03:25:54;;;;;;;21.07;11.43;;;0.10;99.90;;;;;;5042574;28;20168;-66
2021/12/23 03:28:20;;;;;;;17.10;10.23;;;0.00;99.90;;;;;;5043634;28;20164;-65
2021/12/23 03:30:47;;;;;;;23.13;11.80;;;0.00;99.90;;;;;;5036559;28;20175;-67
2021/12/23 03:33:13;;;;;;;24.07;11.00;;;0.00;99.90;;;;;;5035233;28;20173;-66
2021/12/23 03:35:39;;;;;;;22.03;11.33;;;-0.10;99.90;;;;;;5035210;28;20236;-66
2021/12/23 03:38:05;;;;;;;20.23;11.00;;;0.00;99.90;;;;;;5035410;28;20189;-65
2021/12/23 03:40:31;;;;;;;20.13;11.57;;;0.00;99.90;;;;;;5034903;28;20621;-66
2021/12/23 03:42:57;;;;;;;22.07;10.90;;;0.00;99.90;;;;;;5035418;28;20227;-66
2021/12/23 03:45:23;;;;;;;20.77;11.47;;;0.00;99.90;;;;;;5035041;28;20538;-65
2021/12/23 03:47:50;;;;;;;22.20;11.57;;;-0.10;99.90;;;;;;5035463;28;20169;-64
2021/12/23 03:50:21;;;;;;;19.40;11.97;;;0.00;99.90;;;;;;5034885;28;20489;-65
2021/12/23 03:52:47;;;;;;;17.97;10.87;;;0.00;99.90;;;;;;5051432;28;20546;-65
2021/12/23 03:55:14;;;;;;;22.83;12.33;;;-0.10;99.90;;;;;;5034952;28;20183;-66
2021/12/23 03:57:39;;;;;;;19.57;11.13;;;-0.10;99.90;;;;;;5038823;28;20208;-65
2021/12/23 04:00:08;;;;;;;20.77;11.70;;;-0.10;99.90;;;;;;5036167;28;20170;-64
2021/12/23 04:02:34;;;;;;;22.97;12.23;;;-0.10;99.90;;;;;;5035285;28;20208;-66
2021/12/23 04:05:01;;;;;;;24.30;11.00;;;0.00;99.90;;;;;;5034993;28;20564;-65
2021/12/23 04:07:27;;;;;;;17.97;11.23;;;0.00;99.90;;;;;;5034416;28;20173;-65
2021/12/23 04:09:52;;;;;;;23.10;12.07;;;0.00;99.90;;;;;;5050416;28;20191;-66
2021/12/23 04:12:18;;;;;;;24.33;12.00;;;0.00;99.90;;;;;;5034224;28;20187;-65
2021/12/23 04:14:44;;;;;;;19.13;10.87;;;0.00;99.90;;;;;;5034526;28;20223;-66
2021/12/23 04:17:09;;;;;;;21.20;10.57;;;0.00;99.90;;;;;;5034161;28;20193;-66
2021/12/23 04:19:35;;;;;;;22.83;11.30;;;0.00;99.90;;;;;;5034360;28;20222;-66
2021/12/23 04:22:01;;;;;;;23.60;11.50;;;0.00;99.90;;;;;;5034873;28;20161;-66
2021/12/23 04:24:27;;;;;;;19.73;10.40;;;0.00;99.90;;;;;;5034866;28;20178;-66
2021/12/23 04:26:53;;;;;;;24.67;11.87;;;0.00;99.90;;;;;;5034447;28;20171;-65
2021/12/23 04:29:19;;;;;;;20.17;11.30;;;0.00;99.90;;;;;;5034116;28;20192;-64
2021/12/23 04:31:45;;;;;;;20.13;11.70;;;-0.10;99.90;;;;;;5034595;28;20164;-66
2021/12/23 04:34:11;;;;;;;22.77;10.77;;;-0.20;99.90;;;;;;5034547;28;20561;-66
2021/12/23 04:36:37;;;;;;;22.37;11.10;;;-0.10;99.90;;;;;;5034115;28;20236;-65
2021/12/23 04:39:04;;;;;;;21.13;12.07;;;-0.10;99.90;;;;;;5034102;28;20242;-65
2021/12/23 04:41:31;;;;;;;22.83;12.80;;;-0.10;99.90;;;;;;5034801;28;20191;-65
2021/12/23 04:43:57;;;;;;;24.93;13.47;;;-0.10;99.90;;;;;;5034505;28;20250;-67
2021/12/23 04:46:23;;;;;;;21.97;12.10;;;-0.10;99.90;;;;;;5033656;28;20255;-66
2021/12/23 04:48:49;;;;;;;23.83;12.23;;;-0.10;99.90;;;;;;5034051;28;20173;-65
2021/12/23 04:51:16;;;;;;;21.87;12.63;;;-0.10;99.90;;;;;;5034280;28;20176;-65
2021/12/23 04:53:44;;;;;;;21.60;12.40;;;-0.10;99.90;;;;;;5034370;28;20167;-67
2021/12/23 04:56:10;;;;;;;20.87;11.40;;;-0.10;99.90;;;;;;5049371;28;20203;-66
2021/12/23 04:58:36;;;;;;;24.77;13.23;;;-0.10;99.90;;;;;;5042604;28;20196;-66
2021/12/23 05:01:03;;;;;;;25.57;13.33;;;0.00;99.90;;;;;;5046585;28;20218;-66
2021/12/23 05:03:30;;;;;;;23.00;13.03;;;-0.10;99.90;;;;;;5046398;28;20189;-67
2021/12/23 05:05:55;;;;;;;23.17;11.90;;;-0.10;99.90;;;;;;5047009;28;20172;-67
2021/12/23 05:08:21;;;;;;;22.10;12.40;;;-0.10;99.90;;;;;;5049175;28;20164;-66
2021/12/23 05:10:47;;;;;;;24.87;13.27;;;-0.10;99.90;;;;;;5044379;28;20153;-65
2021/12/23 05:13:13;;;;;;;25.63;13.53;;;-0.10;99.90;;;;;;5033390;28;20181;-66
2021/12/23 05:15:39;;;;;;;22.70;12.70;;;-0.10;99.90;;;;;;5033816;28;20206;-71
2021/12/23 05:18:06;;;;;;;22.83;12.60;;;-0.10;99.90;;;;;;5033754;28;20267;-65
2021/12/23 05:20:32;;;;;;;22.87;11.87;;;-0.10;99.90;;;;;;5034461;28;20194;-65
2021/12/23 05:22:57;;;;;;;22.17;12.20;;;-0.10;99.90;;;;;;5037816;28;20585;-66
2021/12/23 05:25:23;;;;;;;26.33;12.33;;;0.00;99.90;;;;;;5038257;28;20171;-67
2021/12/23 05:27:52;;;;;;;25.73;12.37;;;0.00;99.90;;;;;;5033575;28;20268;-67
2021/12/23 05:30:19;;;;;;;21.67;12.77;;;-0.10;99.90;;;;;;5066115;28;20501;-69
2021/12/23 05:32:45;;;;;;;23.63;13.87;;;-0.10;99.90;;;;;;5033090;28;20187;-65
2021/12/23 05:35:13;;;;;;;22.17;12.90;;;-0.10;99.90;;;;;;5033653;28;20229;-66
2021/12/23 05:37:39;;;;;;;21.90;12.70;;;-0.10;99.90;;;;;;5032524;28;20215;-66
2021/12/23 05:40:07;;;;;;;21.93;12.87;;;-0.20;99.90;;;;;;5034093;28;20182;-70
2021/12/23 05:42:32;;;;;;;24.60;13.87;;;-0.20;99.90;;;;;;5034094;28;20168;-67
2021/12/23 05:44:58;;;;;;;28.50;13.87;;;-0.20;99.90;;;;;;5033507;28;20157;-66
2021/12/23 05:47:24;;;;;;;23.97;13.60;;;-0.10;99.90;;;;;;5033449;28;20173;-66
2021/12/23 05:49:50;;;;;;;26.23;12.93;;;-0.10;99.90;;;;;;5033671;28;20170;-65
2021/12/23 05:52:17;;;;;;;25.63;13.37;;;-0.20;99.90;;;;;;5033714;28;20179;-65
2021/12/23 05:54:42;;;;;;;24.90;12.57;;;-0.20;99.90;;;;;;5034035;28;20171;-64
2021/12/23 05:57:08;;;;;;;25.93;13.87;;;-0.20;99.90;;;;;;5033365;28;20276;-66
2021/12/23 05:59:34;;;;;;;24.23;13.23;;;-0.20;99.90;;;;;;5034042;28;20175;-68
2021/12/23 06:02:01;;;;;;;28.47;14.80;;;-0.20;99.90;;;;;;5034850;28;20168;-64
2021/12/23 06:04:27;;;;;;;32.07;15.37;;;-0.30;99.90;;;;;;5040065;28;20171;-64
2021/12/23 06:06:53;;;;;;;25.70;13.47;;;-0.20;99.90;;;;;;5038753;28;20163;-65
2021/12/23 06:09:19;;;;;;;25.03;12.80;;;-0.20;99.90;;;;;;5038622;28;20218;-68
2021/12/23 06:11:45;;;;;;;25.17;14.30;;;-0.30;99.90;;;;;;5040196;28;20479;-67
2021/12/23 06:14:10;;;;;;;26.60;14.27;;;-0.20;99.90;;;;;;5036774;28;20564;-64
2021/12/23 06:16:36;;;;;;;31.10;14.97;;;-0.10;99.90;;;;;;5033614;28;20200;-66
2021/12/23 06:19:02;;;;;;;23.43;12.93;;;-0.30;99.90;;;;;;5033037;28;20183;-65
2021/12/23 06:21:30;;;;;;;25.27;14.00;;;-0.30;99.90;;;;;;5033140;28;20175;-65
2021/12/23 06:23:56;;;;;;;27.97;14.57;;;-0.30;99.90;;;;;;5035885;28;20160;-65
2021/12/23 06:26:22;;;;;;;28.53;14.93;;;-0.30;99.90;;;;;;5036479;28;20169;-66
2021/12/23 06:28:48;;;;;;;25.73;13.80;;;-0.30;99.90;;;;;;5035524;28;20197;-65
2021/12/23 06:31:14;;;;;;;31.07;15.53;;;-0.30;99.90;;;;;;5036737;28;20200;-65
2021/12/23 06:33:40;;;;;;;26.57;15.13;;;-0.30;99.90;;;;;;5035054;28;20612;-64
2021/12/23 06:36:05;;;;;;;28.40;15.73;;;-0.20;99.90;;;;;;5037478;28;20176;-65
2021/12/23 06:38:32;;;;;;;27.63;13.43;;;-0.30;99.90;;;;;;5038162;28;20178;-66
2021/12/23 06:40:58;;;;;;;26.97;13.40;;;-0.40;99.90;;;;;;5039072;28;20268;-65
2021/12/23 06:43:24;;;;;;;25.90;14.83;;;-0.40;99.90;;;;;;5039241;28;20589;-65
2021/12/23 06:45:50;;;;;;;31.13;15.03;;;-0.20;99.90;;;;;;5038731;28;20168;-65
2021/12/23 06:48:15;;;;;;;22.40;13.80;;;-0.20;99.90;;;;;;5039451;28;20627;-66
2021/12/23 06:50:42;;;;;;;25.30;15.17;;;-0.30;99.90;;;;;;5037239;28;20214;-65
2021/12/23 06:53:07;;;;;;;25.50;14.33;;;-0.30;99.90;;;;;;5035899;28;20165;-63
2021/12/23 06:55:33;;;;;;;26.00;13.37;;;-0.30;99.90;;;;;;5036122;28;20253;-66
2021/12/23 06:57:59;;;;;;;28.27;15.20;;;-0.30;99.90;;;;;;5036247;28;20201;-64
2021/12/23 07:00:28;;;;;;;27.43;15.07;;;-0.40;99.90;;;;;;5036508;28;20172;-63
2021/12/23 07:02:54;;;;;;;28.30;14.33;;;-0.40;99.90;;;;;;5035954;28;20628;-65
2021/12/23 07:05:21;;;;;;;24.93;14.03;;;-0.30;99.90;;;;;;5036211;28;20170;-66
2021/12/23 07:08:02;;;;;;;29.50;14.67;;;-0.40;99.90;;;;;;5035696;28;20241;-64
2021/12/23 07:10:29;;;;;;;28.07;15.47;;;-0.30;99.90;;;;;;5067562;28;20180;-63
2021/12/23 07:12:56;;;;;;;27.67;14.20;;;-0.40;99.90;;;;;;5035156;28;20161;-67
2021/12/23 07:15:26;;;;;;;28.77;14.47;;;-0.40;99.90;;;;;;5035435;28;20215;-66
2021/12/23 07:17:53;;;;;;;29.10;14.37;;;-0.30;99.90;;;;;;5035179;28;20547;-66
2021/12/23 07:20:19;;;;;;;27.43;14.27;;;-0.40;99.90;;;;;;5035398;28;20300;-64
2021/12/23 07:22:46;;;;;;;33.07;15.43;;;-0.40;99.90;;;;;;5067764;28;20175;-65
2021/12/23 07:25:13;;;;;;;33.13;15.73;;;-0.30;99.90;;;;;;5035328;28;20157;-67
2021/12/23 07:27:39;;;;;;;28.47;14.40;;;-0.30;99.90;;;;;;5035426;28;20196;-65
2021/12/23 07:30:06;;;;;;;25.30;14.20;;;-0.30;99.90;;;;;;5035370;28;20166;-66
2021/12/23 07:32:32;;;;;;;23.90;14.10;;;-0.40;99.90;;;;;;5035668;28;20188;-64
2021/12/23 07:34:58;;;;;;;25.53;13.37;;;-0.30;99.90;;;;;;5034393;28;20354;-65
2021/12/23 07:37:23;;;;;;;29.10;14.23;;;-0.40;99.90;;;;;;5034874;28;20200;-63
2021/12/23 07:39:50;;;;;;;26.07;14.03;;;-0.30;99.90;;;;;;5035131;28;20193;-65
2021/12/23 07:42:18;;;;;;;27.70;14.47;;;-0.20;99.90;;;;;;5034835;28;20185;-65
2021/12/23 07:44:44;;;;;;;26.87;12.73;;;-0.20;99.90;;;;;;5067215;28;20573;-63
2021/12/23 07:47:11;;;;;;;26.40;14.10;;;-0.20;99.90;;;;;;5035121;28;20165;-63
2021/12/23 07:49:36;;;;;;;28.03;14.40;;;-0.20;99.90;;;;;;5067851;28;20187;-63
2021/12/23 07:52:02;;;;;;;24.43;12.87;;;-0.30;99.90;;;;;;5035710;28;20232;-64
2021/12/23 07:54:28;;;;;;;28.50;14.17;;;-0.20;99.90;;;;;;5034853;28;20165;-65
2021/12/23 07:56:56;;;;;;;25.80;13.80;;;-0.20;99.90;;;;;;5034858;28;20200;-65
2021/12/23 07:59:21;;;;;;;24.23;13.77;;;-0.30;99.90;;;;;;5034681;28;20197;-65
2021/12/23 08:01:47;;;;;;;24.67;13.33;;;-0.40;99.90;;;;;;5034661;28;20161;-64
2021/12/23 08:04:13;;;;;;;24.90;13.77;;;-0.40;99.90;;;;;;5033506;28;20206;-65
2021/12/23 08:06:38;;;;;;;27.67;15.07;;;-0.40;99.90;;;;;;5034337;28;20501;-65
2021/12/23 08:09:04;;;;;;;25.33;13.97;;;-0.40;99.90;;;;;;5035624;28;20165;-68
2021/12/23 08:11:30;;;;;;;29.60;14.30;;;-0.40;99.90;;;;;;5034931;28;20642;-64
2021/12/23 08:13:55;;;;;;;27.43;15.03;;;-0.30;99.90;;;;;;5040157;28;20165;-66
2021/12/23 08:16:21;;;;;;;25.90;13.67;;;-0.40;99.90;;;;;;5041450;28;20215;-63
2021/12/23 08:18:46;;;;;;;29.53;14.03;;;-0.30;99.90;;;;;;5040379;28;20264;-65
2021/12/23 08:21:12;;;;;;;26.27;13.67;;;-0.30;99.90;;;;;;5041645;28;20240;-65
2021/12/23 08:23:38;;;;;;;25.17;13.33;;;-0.30;99.90;;;;;;5038280;28;20221;-64
2021/12/23 08:26:10;;;;;;;24.30;13.50;;;-0.30;99.90;;;;;;5039848;28;20174;-66
2021/12/23 08:28:36;;;;;;;24.80;13.87;;;-0.20;99.90;;;;;;5039683;28;20162;-65
2021/12/23 08:31:02;;;;;;;23.43;13.13;;;-0.30;99.90;;;;;;5034992;28;20180;-64
2021/12/23 08:33:29;;;;;;;29.87;14.03;;;-0.30;99.90;;;;;;5034627;28;20176;-65
2021/12/23 08:35:54;;;;;;;25.20;13.93;;;-0.10;99.90;;;;;;5034213;28;20226;-65
2021/12/23 08:38:20;;;;;;;23.43;12.53;;;-0.20;99.90;;;;;;5034252;28;20168;-65
2021/12/23 08:40:46;;;;;;;30.40;13.80;;;-0.20;99.90;;;;;;5048737;28;20177;-66
2021/12/23 08:43:13;;;;;;;24.33;13.47;;;-0.10;99.90;;;;;;5054353;28;20218;-64
2021/12/23 08:45:39;;;;;;;25.47;13.27;;;-0.20;99.90;;;;;;5054053;28;20202;-65
2021/12/23 08:48:05;;;;;;;24.23;13.07;;;-0.20;99.90;;;;;;5053946;28;20184;-64
2021/12/23 08:50:31;;;;;;;25.67;14.10;;;-0.10;99.90;;;;;;5053598;28;20162;-65
2021/12/23 08:52:58;;;;;;;26.10;13.80;;;-0.10;99.90;;;;;;5053893;28;20166;-65
2021/12/23 08:55:27;;;;;;;27.03;13.03;;;-0.10;99.90;;;;;;5053522;28;20245;-64
2021/12/23 08:57:56;;;;;;;31.93;14.03;;;-0.10;99.90;;;;;;5054010;28;20624;-64
2021/12/23 09:00:22;;;;;;;26.07;13.23;;;-0.10;99.90;;;;;;5053903;28;20207;-64
2021/12/23 09:02:49;;;;;;;25.63;14.17;;;-0.10;99.90;;;;;;5053469;28;20198;-64
2021/12/23 09:05:16;;;;;;;26.23;14.47;;;-0.10;99.90;;;;;;5052444;28;20166;-65
2021/12/23 09:07:42;;;;;;;25.80;13.03;;;-0.10;99.90;;;;;;5053296;28;20161;-65
2021/12/23 09:10:09;;;;;;;28.47;14.13;;;-0.10;99.90;;;;;;5053018;28;20165;-64
2021/12/23 09:12:35;;;;;;;29.20;15.20;;;0.00;99.90;;;;;;5052850;28;20203;-65
2021/12/23 09:15:01;;;;;;;29.20;15.23;;;0.00;99.90;;;;;;5052902;28;20228;-64
2021/12/23 09:17:26;;;;;;;28.23;14.13;;;0.00;99.90;;;;;;5051266;28;20205;-64
2021/12/23 09:19:52;;;;;;;29.47;14.47;;;0.00;99.90;;;;;;5052738;28;20168;-63
2021/12/23 09:22:18;;;;;;;24.63;13.30;;;0.00;99.90;;;;;;5051990;28;20262;-63
2021/12/23 09:24:46;;;;;;;23.27;13.30;;;0.10;99.90;;;;;;5052460;28;20157;-63
2021/12/23 09:32:52;;;;;;;23.90;13.10;;;0.10;99.90;;;;;;5053117;28;20187;-64
2021/12/23 09:35:20;;;;;;;23.67;12.80;;;0.00;99.90;;;;;;5053451;28;20223;-63
2021/12/23 09:37:46;;;;;;;24.60;13.50;;;0.10;99.90;;;;;;5053132;28;20203;-65
2021/12/23 09:40:12;;;;;;;26.33;13.87;;;0.00;99.90;;;;;;5055644;28;20164;-64
2021/12/23 09:42:41;;;;;;;24.70;13.40;;;0.10;99.90;;;;;;5055301;28;20202;-64
2021/12/23 09:45:11;;;;;;;29.80;12.90;;;0.10;99.90;;;;;;5051671;28;20191;-64
2021/12/23 09:47:41;;;;;;;25.57;13.53;;;0.10;99.90;;;;;;5052722;28;20222;-64
2021/12/23 09:50:10;;;;;;;23.90;12.90;;;0.00;99.90;;;;;;5052798;28;20203;-63
2021/12/23 09:52:42;;;;;;;24.83;12.87;;;0.10;99.90;;;;;;5052561;28;20165;-64
2021/12/23 09:55:08;;;;;;;24.23;13.70;;;0.00;99.90;;;;;;5052043;28;20182;-63
2021/12/23 09:57:34;;;;;;;26.57;13.87;;;0.10;99.90;;;;;;5053453;28;20641;-63
2021/12/23 10:00:00;;;;;;;22.67;12.07;;;0.20;99.90;;;;;;5056817;28;20176;-63
2021/12/23 10:02:25;;;;;;;28.20;13.83;;;0.10;99.90;;;;;;5056900;28;20214;-63
2021/12/23 10:04:53;;;;;;;22.57;12.90;;;0.20;99.90;;;;;;5056425;28;20161;-64
2021/12/23 10:07:19;;;;;;;28.40;12.87;;;0.20;99.90;;;;;;5057027;28;20160;-63
2021/12/23 10:09:57;;;;;;;25.37;13.07;;;0.30;99.90;;;;;;5056885;28;20168;-63
2021/12/23 10:31:47;;;;;;;23.40;13.00;;;0.50;99.90;;;;;;5056450;28;20162;-65
2021/12/23 10:37:16;;;;;;;26.43;13.67;;;0.70;99.90;;;;;;5056039;28;20200;-64
2021/12/23 10:40:08;;;;;;;26.30;12.60;;;0.70;99.90;;;;;;5055260;28;20522;-63
2021/12/23 10:42:34;;;;;;;22.83;12.77;;;0.60;99.90;;;;;;5056447;28;20171;-64
2021/12/23 10:45:13;;;;;;;26.13;13.10;;;0.60;99.90;;;;;;5054369;28;20514;-64
2021/12/23 10:47:56;;;;;;;26.60;12.73;;;0.60;99.90;;;;;;5056717;28;20295;-64
2021/12/23 10:50:31;;;;;;;22.47;12.57;;;0.70;99.90;;;;;;5056812;28;20160;-63
2021/12/23 10:53:06;;;;;;;23.60;12.90;;;0.60;99.90;;;;;;5055652;28;20164;-64
2021/12/23 10:58:17;;;;;;;25.57;13.73;;;0.60;99.90;;;;;;5055146;28;20260;-64
2021/12/23 11:00:49;;;;;;;24.23;13.63;;;0.70;99.90;;;;;;5053693;28;20180;-64
2021/12/23 11:06:14;;;;;;;22.23;12.10;;;0.70;99.90;;;;;;5062733;28;20325;-64
2021/12/23 11:09:10;;;;;;;24.00;13.10;;;0.70;99.90;;;;;;5054951;28;20254;-65
2021/12/23 11:39:10;;;;;;;25.10;12.77;;;0.80;99.90;;;;;;5054198;28;20173;-64
2021/12/23 11:41:46;;;;;;;22.73;12.33;;;0.80;99.90;;;;;;5054297;28;20159;-64
2021/12/23 11:44:13;;;;;;;22.37;12.20;;;0.80;99.90;;;;;;5054171;28;20168;-65
2021/12/23 11:46:45;;;;;;;22.13;12.13;;;0.80;99.90;;;;;;5054209;28;20179;-65
2021/12/23 11:49:13;;;;;;;18.23;10.87;;;1.00;99.90;;;;;;5054951;28;20495;-63
2021/12/23 11:51:46;;;;;;;28.53;13.10;;;0.90;99.90;;;;;;5054720;28;20148;-65
2021/12/23 11:54:28;;;;;;;29.43;12.93;;;1.00;99.90;;;;;;5054400;28;20171;-64
2021/12/23 11:57:04;;;;;;;22.10;11.60;;;1.00;99.90;;;;;;5054631;28;20208;-64
2021/12/23 11:59:32;;;;;;;25.67;13.27;;;0.90;99.90;;;;;;5053712;28;20664;-65
2021/12/23 12:01:58;;;;;;;27.10;13.73;;;0.90;99.90;;;;;;5054187;28;20206;-67
2021/12/23 12:04:25;;;;;;;25.90;13.50;;;0.80;99.90;;;;;;5054362;28;20588;-63
2021/12/23 12:06:53;;;;;;;22.23;12.27;;;0.70;99.90;;;;;;5054007;28;20540;-65
2021/12/23 12:09:28;;;;;;;22.90;13.27;;;0.80;99.90;;;;;;5054300;28;20252;-63
2021/12/23 12:11:59;;;;;;;26.20;13.73;;;0.80;99.90;;;;;;5053825;28;20156;-64
2021/12/23 12:14:40;;;;;;;24.83;12.90;;;0.80;99.90;;;;;;5054082;28;20228;-64
2021/12/23 12:17:26;;;;;;;26.27;13.90;;;0.80;99.90;;;;;;5054216;28;20192;-64
2021/12/23 12:19:56;;;;;;;24.20;13.60;;;0.70;99.90;;;;;;5054067;28;20177;-63
2021/12/23 12:22:59;;;;;;;25.40;13.20;;;0.70;99.90;;;;;;5052453;28;20184;-64
2021/12/23 12:25:25;;;;;;;22.97;13.33;;;0.70;99.90;;;;;;5054389;28;20176;-63
2021/12/23 12:27:56;;;;;;;31.47;13.93;;;0.70;99.90;;;;;;5053979;28;20608;-64
2021/12/23 12:30:42;;;;;;;28.97;14.00;;;0.70;99.90;;;;;;5054078;28;20164;-64
2021/12/23 12:33:23;;;;;;;26.83;14.50;;;0.80;99.90;;;;;;5058854;28;20631;-64
2021/12/23 12:35:58;;;;;;;29.00;13.93;;;0.70;99.90;;;;;;5052944;28;20565;-63
2021/12/23 12:38:27;;;;;;;28.47;14.33;;;0.70;99.90;;;;;;5053379;28;20712;-64
2021/12/23 12:41:08;;;;;;;26.43;14.40;;;0.70;99.90;;;;;;5052448;28;20267;-63
2021/12/23 12:43:46;;;;;;;30.00;15.87;;;0.70;99.90;;;;;;5053127;28;20248;-64
2021/12/23 12:46:47;;;;;;;28.87;14.53;;;0.70;99.90;;;;;;5053647;28;20172;-65
2021/12/23 12:49:26;;;;;;;25.50;13.60;;;0.70;99.90;;;;;;5048656;28;20213;-64
2021/12/23 12:52:06;;;;;;;33.30;17.03;;;0.70;99.90;;;;;;5052945;28;20150;-64
2021/12/23 12:54:33;;;;;;;30.90;15.97;;;0.70;99.90;;;;;;5053508;28;20173;-65
2021/12/23 12:57:07;;;;;;;30.93;15.43;;;0.80;99.90;;;;;;5053304;28;20192;-66
2021/12/23 12:59:43;;;;;;;31.27;14.27;;;0.80;99.90;;;;;;5053343;28;20176;-65
2021/12/23 13:02:18;;;;;;;28.43;14.83;;;0.80;99.90;;;;;;5053386;28;20164;-64
2021/12/23 13:04:57;;;;;;;29.50;14.67;;;0.80;99.90;;;;;;5053760;28;20214;-65
2021/12/23 13:07:34;;;;;;;30.70;14.90;;;0.80;99.90;;;;;;5053115;28;20262;-63
2021/12/23 13:10:12;;;;;;;29.97;15.13;;;0.80;99.90;;;;;;5053993;28;20523;-63
2021/12/23 13:12:51;;;;;;;28.03;14.57;;;0.80;99.90;;;;;;5054408;28;20657;-62
2021/12/23 13:15:20;;;;;;;34.07;15.67;;;0.90;99.90;;;;;;5060038;28;20164;-64
2021/12/23 13:17:55;;;;;;;28.20;15.40;;;0.90;99.90;;;;;;5058754;28;20246;-64
2021/12/23 13:20:39;;;;;;;29.37;14.77;;;0.90;99.90;;;;;;5061375;28;20164;-66
2021/12/23 13:23:08;;;;;;;33.07;16.73;;;0.90;99.90;;;;;;5052848;28;20158;-63
2021/12/23 13:25:43;;;;;;;30.97;15.53;;;0.70;99.90;;;;;;5053644;28;20164;-64
2021/12/23 13:28:08;;;;;;;32.93;16.13;;;0.80;99.90;;;;;;5053007;28;20164;-64
2021/12/23 13:30:39;;;;;;;35.47;17.63;;;0.80;99.90;;;;;;5053346;28;20218;-64
2021/12/23 13:33:05;;;;;;;32.67;16.60;;;0.80;99.90;;;;;;5054914;28;20207;-63
2021/12/23 13:35:31;;;;;;;33.23;15.50;;;0.80;99.90;;;;;;5057724;28;20231;-63
2021/12/23 13:37:57;;;;;;;29.37;15.47;;;0.80;99.90;;;;;;5057166;28;20192;-64
2021/12/23 13:40:27;;;;;;;34.67;16.80;;;0.80;99.90;;;;;;5057125;28;20164;-63